Time;durP1;ratioP1;P1;durP2;ratioP2;P2;SDS_P1;SDS_P2;PMS_P1;PMS_P2;Temp;Humidity;BMP_temperature;BMP_pressure;BME280_temperature;BME280_humidity;BME280_pressure;Samples;Min_cycle;Max_cycle;Signal;HPM_P1;HPM_P2
2021/04/06 00:02:18;;;;;;;;;;;3.90;80.00;;;;;;4303575;33;20006;-75
2021/04/06 00:04:56;;;;;;;;;;;4.00;80.10;;;;;;4304012;33;20018;-75
2021/04/06 00:07:30;;;;;;;;;;;4.00;80.10;;;;;;4303428;33;25482;-75
2021/04/06 00:10:05;;;;;;;;;;;4.00;80.10;;;;;;4290703;33;35051;-75
2021/04/06 00:12:44;;;;;;;;;;;4.00;80.10;;;;;;4292433;33;20021;-75
2021/04/06 00:15:14;;;;;;;;;;;4.00;80.00;;;;;;4306616;33;20014;-75
2021/04/06 00:17:46;;;;;;;;;;;4.00;80.30;;;;;;4306935;33;20047;-74
2021/04/06 00:20:23;;;;;;;;;;;4.00;80.20;;;;;;4294804;33;20410;-74
2021/04/06 00:22:57;;;;;;;;;;;4.00;80.00;;;;;;4305905;33;42735;-74
2021/04/06 00:25:38;;;;;;;;;;;3.90;80.20;;;;;;4318728;33;42832;-74
2021/04/06 00:28:13;;;;;;;;;;;3.90;80.40;;;;;;4319151;33;36798;-74
2021/04/06 00:30:41;;;;;;;;;;;3.90;80.50;;;;;;4305603;33;42682;-74
2021/04/06 00:33:34;;;;;;;;;;;3.80;80.80;;;;;;4319661;33;20054;-74
2021/04/06 00:36:08;;;;;;;;;;;3.80;80.90;;;;;;4286884;33;20061;-74
2021/04/06 00:38:40;;;;;;;;;;;3.80;81.00;;;;;;4294731;33;20014;-74
2021/04/06 00:41:14;;;;;;;;;;;3.80;81.00;;;;;;4319927;33;20043;-74
2021/04/06 00:43:55;;;;;;;;;;;3.80;81.00;;;;;;4294175;33;25359;-74
2021/04/06 00:46:31;;;;;;;;;;;3.80;80.90;;;;;;4305394;33;43362;-74
2021/04/06 00:49:11;;;;;;;;;;;3.70;80.90;;;;;;4305674;33;42382;-74
2021/04/06 00:51:41;;;;;;;;;;;3.80;81.20;;;;;;4293361;33;28298;-74
2021/04/06 00:54:17;;;;;;;;;;;3.80;81.20;;;;;;4305455;33;31446;-74
2021/04/06 00:56:50;;;;;;;;;;;3.70;81.20;;;;;;4318093;33;41504;-74
2021/04/06 00:59:30;;;;;;;;;;;3.80;81.20;;;;;;4294391;33;19999;-74
2021/04/06 01:02:08;;;;;;;;;;;3.80;81.40;;;;;;4305723;33;20391;-74
2021/04/06 01:04:52;;;;;;;;;;;3.90;81.40;;;;;;4294119;33;19998;-74
2021/04/06 01:07:25;;;;;;;;;;;3.90;81.30;;;;;;4293155;33;37781;-74
2021/04/06 01:10:00;;;;;;;;;;;3.90;81.20;;;;;;4293731;33;21180;-74
2021/04/06 01:12:37;;;;;;;;;;;3.90;81.30;;;;;;4306033;33;20380;-74
2021/04/06 01:15:10;;;;;;;;;;;4.00;81.20;;;;;;4304779;33;45209;-74
2021/04/06 01:17:46;;;;;;;;;;;4.00;81.10;;;;;;4306107;33;20062;-74
2021/04/06 01:20:19;;;;;;;;;;;4.00;81.00;;;;;;4304793;33;35264;-74
2021/04/06 01:22:57;;;;;;;;;;;4.00;81.10;;;;;;4306299;33;20129;-74
2021/04/06 01:25:34;;;;;;;;;;;3.90;81.10;;;;;;4305783;33;20053;-74
2021/04/06 01:28:10;;;;;;;;;;;3.90;81.30;;;;;;4292860;33;46911;-74
2021/04/06 01:30:47;;;;;;;;;;;3.90;81.50;;;;;;4305880;33;20095;-74
2021/04/06 01:33:23;;;;;;;;;;;3.90;81.70;;;;;;4305828;33;20045;-74
2021/04/06 01:35:58;;;;;;;;;;;3.90;81.60;;;;;;4318545;33;20013;-74
2021/04/06 01:38:33;;;;;;;;;;;3.90;81.70;;;;;;4292475;33;30447;-74
2021/04/06 01:41:06;;;;;;;;;;;3.90;81.70;;;;;;4303928;33;44755;-75
2021/04/06 01:43:39;;;;;;;;;;;3.90;81.60;;;;;;4305811;33;20049;-74
2021/04/06 01:46:20;;;;;;;;;;;3.90;81.80;;;;;;4318902;33;20112;-74
2021/04/06 01:48:59;;;;;;;;;;;3.90;81.80;;;;;;4318831;33;20366;-75
2021/04/06 01:51:34;;;;;;;;;;;3.90;81.80;;;;;;4293456;33;20010;-74
2021/04/06 01:54:19;;;;;;;;;;;3.90;81.70;;;;;;4304780;33;28693;-73
2021/04/06 01:56:57;;;;;;;;;;;3.90;81.70;;;;;;4305849;33;20028;-74
2021/04/06 01:59:41;;;;;;;;;;;3.90;81.50;;;;;;4293518;33;20045;-74
2021/04/06 02:02:10;;;;;;;;;;;3.90;81.50;;;;;;4304260;33;29413;-74
2021/04/06 02:04:45;;;;;;;;;;;4.00;81.70;;;;;;4303993;33;41858;-74
2021/04/06 02:07:22;;;;;;;;;;;3.90;81.70;;;;;;4318458;33;20011;-74
2021/04/06 02:09:54;;;;;;;;;;;3.90;81.90;;;;;;4317647;33;20017;-74
2021/04/06 02:12:29;;;;;;;;;;;3.90;81.90;;;;;;4304463;33;33519;-75
2021/04/06 02:15:01;;;;;;;;;;;3.90;81.90;;;;;;4317249;33;44670;-74
2021/04/06 02:17:47;;;;;;;;;;;3.90;81.80;;;;;;4304986;33;20020;-75
2021/04/06 02:20:35;;;;;;;;;;;3.90;81.70;;;;;;4305480;33;20019;-75
2021/04/06 02:23:13;;;;;;;;;;;3.90;81.50;;;;;;4318363;33;20507;-75
2021/04/06 02:25:55;;;;;;;;;;;3.90;81.60;;;;;;4304559;33;20002;-75
2021/04/06 02:28:28;;;;;;;;;;;3.90;81.60;;;;;;4292266;33;20012;-75
2021/04/06 02:31:04;;;;;;;;;;;3.80;81.50;;;;;;4292972;33;19998;-75
2021/04/06 02:33:42;;;;;;;;;;;3.80;81.70;;;;;;4293112;33;20118;-75
2021/04/06 02:36:18;;;;;;;;;;;3.80;81.80;;;;;;4303209;33;42169;-75
2021/04/06 02:38:53;;;;;;;;;;;3.80;82.00;;;;;;4304450;33;20047;-74
2021/04/06 02:41:29;;;;;;;;;;;3.70;81.90;;;;;;4304233;33;37207;-74
2021/04/06 02:44:05;;;;;;;;;;;3.70;82.10;;;;;;4291888;33;36261;-74
2021/04/06 02:46:48;;;;;;;;;;;3.70;82.40;;;;;;4304389;33;44329;-74
2021/04/06 02:49:26;;;;;;;;;;;3.70;82.20;;;;;;4304644;33;20057;-74
2021/04/06 02:52:08;;;;;;;;;;;3.70;82.20;;;;;;4303556;33;41931;-74
2021/04/06 02:54:43;;;;;;;;;;;3.70;82.20;;;;;;4290756;33;45064;-74
2021/04/06 02:57:22;;;;;;;;;;;3.60;82.20;;;;;;4316916;33;32887;-74
2021/04/06 02:59:54;;;;;;;;;;;3.60;82.60;;;;;;4317651;33;20436;-74
2021/04/06 03:02:24;;;;;;;;;;;3.60;82.60;;;;;;4317372;33;20021;-74
2021/04/06 03:04:59;;;;;;;;;;;3.50;82.70;;;;;;4316293;33;33163;-74
2021/04/06 03:07:34;;;;;;;;;;;3.50;82.80;;;;;;4292567;33;19998;-74
2021/04/06 03:10:07;;;;;;;;;;;3.50;83.00;;;;;;4317736;33;20006;-74
2021/04/06 03:12:45;;;;;;;;;;;3.50;83.00;;;;;;4304973;33;20077;-74
2021/04/06 03:15:21;;;;;;;;;;;3.50;83.10;;;;;;4292326;33;20053;-74
2021/04/06 03:17:59;;;;;;;;;;;3.50;83.30;;;;;;4304202;33;20408;-73
2021/04/06 03:20:39;;;;;;;;;;;3.50;83.50;;;;;;4304280;33;20002;-74
2021/04/06 03:23:13;;;;;;;;;;;3.50;83.60;;;;;;4303670;33;29807;-74
2021/04/06 03:25:50;;;;;;;;;;;3.40;83.40;;;;;;4302992;33;42617;-74
2021/04/06 03:28:29;;;;;;;;;;;3.40;83.60;;;;;;4290908;33;45279;-74
2021/04/06 03:31:10;;;;;;;;;;;3.40;83.60;;;;;;4290907;33;45544;-74
2021/04/06 03:33:51;;;;;;;;;;;3.40;83.60;;;;;;4303794;33;19999;-74
2021/04/06 03:36:29;;;;;;;;;;;3.40;83.90;;;;;;4304341;33;20490;-74
2021/04/06 03:39:07;;;;;;;;;;;3.40;84.10;;;;;;4303697;33;41168;-74
2021/04/06 03:41:45;;;;;;;;;;;3.40;83.90;;;;;;4304519;33;20053;-74
2021/04/06 03:44:24;;;;;;;;;;;3.40;83.90;;;;;;4303203;33;35244;-74
2021/04/06 03:47:03;;;;;;;;;;;3.40;83.90;;;;;;4292356;33;19998;-74
2021/04/06 03:49:45;;;;;;;;;;;3.40;84.00;;;;;;4302932;33;35974;-74
2021/04/06 03:52:19;;;;;;;;;;;3.40;84.10;;;;;;4317437;33;20012;-74
2021/04/06 03:54:51;;;;;;;;;;;3.40;84.10;;;;;;4291333;33;37088;-74
2021/04/06 03:57:46;;;;;;;;;;;3.30;83.90;;;;;;4303913;33;20018;-74
2021/04/06 04:00:22;;;;;;;;;;;3.30;84.10;;;;;;4317218;33;20077;-74
2021/04/06 04:02:57;;;;;;;;;;;3.40;84.10;;;;;;4302484;33;42140;-74
2021/04/06 04:05:32;;;;;;;;;;;3.40;84.00;;;;;;4304230;33;20014;-74
2021/04/06 04:08:07;;;;;;;;;;;3.40;83.90;;;;;;4292000;33;20066;-74
2021/04/06 04:10:43;;;;;;;;;;;3.40;83.80;;;;;;4303442;33;36357;-74
2021/04/06 04:13:15;;;;;;;;;;;3.40;83.80;;;;;;4315770;33;43304;-74
2021/04/06 04:15:53;;;;;;;;;;;3.40;83.80;;;;;;4291021;33;42396;-74
2021/04/06 04:18:29;;;;;;;;;;;3.30;83.90;;;;;;4317311;33;20002;-74
2021/04/06 04:21:03;;;;;;;;;;;3.30;84.10;;;;;;4303067;33;36755;-74
2021/04/06 04:23:32;;;;;;;;;;;3.30;84.00;;;;;;4302991;33;44784;-74
2021/04/06 04:26:08;;;;;;;;;;;3.30;84.10;;;;;;4317031;33;20022;-74
2021/04/06 04:28:44;;;;;;;;;;;3.30;84.20;;;;;;4315879;33;44643;-74
2021/04/06 04:31:19;;;;;;;;;;;3.30;84.20;;;;;;4303222;33;35659;-74
2021/04/06 04:33:55;;;;;;;;;;;3.30;84.20;;;;;;4302597;33;41697;-74
2021/04/06 04:36:28;;;;;;;;;;;3.20;84.20;;;;;;4291737;33;20050;-74
2021/04/06 04:38:57;;;;;;;;;;;3.20;84.30;;;;;;4302444;33;43946;-74
2021/04/06 04:41:32;;;;;;;;;;;3.20;84.20;;;;;;4316356;33;20049;-74
2021/04/06 04:44:09;;;;;;;;;;;3.20;84.20;;;;;;4304425;33;20014;-74
2021/04/06 04:46:42;;;;;;;;;;;3.20;84.10;;;;;;4304022;33;20052;-74
2021/04/06 04:49:17;;;;;;;;;;;3.20;84.20;;;;;;4303283;33;20053;-75
2021/04/06 04:51:52;;;;;;;;;;;3.20;84.10;;;;;;4291462;33;23526;-74
2021/04/06 04:54:25;;;;;;;;;;;3.20;84.00;;;;;;4302598;33;44439;-74
2021/04/06 04:57:00;;;;;;;;;;;3.20;84.20;;;;;;4302308;33;36546;-74
2021/04/06 04:59:29;;;;;;;;;;;3.10;84.10;;;;;;4303148;33;39663;-75
2021/04/06 05:02:02;;;;;;;;;;;3.10;84.80;;;;;;4305791;33;20073;-75
2021/04/06 05:04:35;;;;;;;;;;;3.10;84.10;;;;;;4292846;33;43987;-75
2021/04/06 05:07:09;;;;;;;;;;;3.10;84.10;;;;;;4307012;33;20497;-75
2021/04/06 05:09:41;;;;;;;;;;;3.10;84.10;;;;;;4319463;33;20093;-75
2021/04/06 05:12:14;;;;;;;;;;;3.20;84.10;;;;;;4319249;33;20411;-74
2021/04/06 05:14:47;;;;;;;;;;;3.10;84.10;;;;;;4305709;33;20396;-74
2021/04/06 05:17:19;;;;;;;;;;;3.10;84.10;;;;;;4319543;33;20455;-75
2021/04/06 05:19:57;;;;;;;;;;;3.10;84.10;;;;;;4305929;33;20049;-74
2021/04/06 05:22:35;;;;;;;;;;;3.10;84.10;;;;;;4292339;33;43855;-74
2021/04/06 05:25:06;;;;;;;;;;;3.10;84.20;;;;;;4319224;33;20056;-74
2021/04/06 05:27:40;;;;;;;;;;;3.10;84.20;;;;;;4317929;33;41167;-75
2021/04/06 05:30:15;;;;;;;;;;;3.10;84.30;;;;;;4304805;33;33853;-74
2021/04/06 05:32:47;;;;;;;;;;;3.10;84.20;;;;;;4305434;33;20026;-74
2021/04/06 05:35:21;;;;;;;;;;;3.10;84.30;;;;;;4317791;33;44694;-74
2021/04/06 05:37:51;;;;;;;;;;;3.10;84.30;;;;;;4304593;33;43494;-74
2021/04/06 05:40:26;;;;;;;;;;;3.10;84.40;;;;;;4305389;33;20043;-74
2021/04/06 05:43:03;;;;;;;;;;;3.10;84.50;;;;;;4305777;33;20014;-74
2021/04/06 05:45:37;;;;;;;;;;;3.10;84.50;;;;;;4304286;33;40905;-74
2021/04/06 05:48:07;;;;;;;;;;;3.20;84.60;;;;;;4305880;33;20027;-74
2021/04/06 05:50:45;;;;;;;;;;;3.20;84.60;;;;;;4318507;33;20066;-75
2021/04/06 05:53:27;;;;;;;;;;;3.20;84.60;;;;;;4304752;33;31074;-75
2021/04/06 05:56:06;;;;;;;;;;;3.20;84.70;;;;;;4293597;33;20046;-74
2021/04/06 05:58:38;;;;;;;;;;;3.20;84.60;;;;;;4305337;33;20020;-75
2021/04/06 06:01:14;;;;;;;;;;;3.20;84.70;;;;;;4305133;33;20396;-75
2021/04/06 06:03:40;;;;;;;;;;;3.20;84.90;;;;;;4303631;33;43688;-75
2021/04/06 06:06:08;;;;;;;;;;;3.20;84.80;;;;;;4317440;33;22330;-75
2021/04/06 06:08:37;;;;;;;;;;;3.20;84.80;;;;;;4317450;33;36822;-75
2021/04/06 06:11:10;;;;;;;;;;;3.30;84.80;;;;;;4315960;33;43636;-75
2021/04/06 06:13:41;;;;;;;;;;;3.30;84.70;;;;;;4288030;33;45520;-75
2021/04/06 06:16:10;;;;;;;;;;;3.30;84.60;;;;;;4286728;33;44053;-75
2021/04/06 06:18:55;;;;;;;;;;;3.30;84.60;;;;;;4287392;33;20058;-75
2021/04/06 06:22:06;;;;;;;;;;;3.30;84.40;;;;;;4288527;33;20046;-75
2021/04/06 06:24:38;;;;;;;;;;;3.30;84.30;;;;;;4230056;34;20000;-75
2021/04/06 06:27:33;;;;;;;;;;;3.30;84.30;;;;;;4229942;34;20019;-75
2021/04/06 06:30:40;;;;;;;;;;;3.30;84.50;;;;;;4230684;34;20026;-75
2021/04/06 06:33:19;;;;;;;;;;;3.30;84.50;;;;;;4229181;34;44706;-75
2021/04/06 06:36:15;;;;;;;;;;;3.40;84.50;;;;;;4230167;34;20015;-75
2021/04/06 06:38:53;;;;;;;;;;;3.40;84.50;;;;;;4229626;34;20058;-75
2021/04/06 06:41:55;;;;;;;;;;;3.40;84.70;;;;;;4227866;33;34945;-75
2021/04/06 06:44:33;;;;;;;;;;;3.40;84.40;;;;;;4229039;34;44576;-75
2021/04/06 06:47:12;;;;;;;;;;;3.40;84.40;;;;;;4229384;34;30115;-75
2021/04/06 06:49:42;;;;;;;;;;;3.40;84.30;;;;;;4229378;34;32711;-75
2021/04/06 06:52:24;;;;;;;;;;;3.40;84.40;;;;;;4259684;33;44809;-74
2021/04/06 06:55:03;;;;;;;;;;;3.40;84.40;;;;;;4288984;33;20037;-74
2021/04/06 06:57:44;;;;;;;;;;;3.40;84.50;;;;;;4287998;33;20019;-74
2021/04/06 07:00:17;;;;;;;;;;;3.40;84.40;;;;;;4286916;33;25080;-74
2021/04/06 07:02:50;;;;;;;;;;;3.40;85.00;;;;;;4274050;33;41603;-74
2021/04/06 07:05:26;;;;;;;;;;;3.50;84.40;;;;;;4288652;33;20152;-74
2021/04/06 07:08:03;;;;;;;;;;;3.50;84.30;;;;;;4287973;33;30831;-74
2021/04/06 07:10:43;;;;;;;;;;;3.50;84.20;;;;;;4275572;33;19995;-74
2021/04/06 07:13:20;;;;;;;;;;;3.60;84.30;;;;;;4274627;33;39346;-74
2021/04/06 07:15:55;;;;;;;;;;;3.60;84.20;;;;;;4287495;33;44631;-74
2021/04/06 07:18:31;;;;;;;;;;;3.60;84.10;;;;;;4286414;33;40150;-74
2021/04/06 07:21:06;;;;;;;;;;;3.50;84.20;;;;;;4286384;33;44170;-74
2021/04/06 07:23:49;;;;;;;;;;;3.50;84.30;;;;;;4287461;33;34322;-74
2021/04/06 07:26:31;;;;;;;;;;;3.50;84.60;;;;;;4275330;33;20069;-74
2021/04/06 07:29:10;;;;;;;;;;;3.50;84.60;;;;;;4275241;33;19999;-74
2021/04/06 07:31:42;;;;;;;;;;;3.40;84.70;;;;;;4286604;33;34051;-74
2021/04/06 07:34:16;;;;;;;;;;;3.50;84.90;;;;;;4287027;33;20034;-74
2021/04/06 07:36:46;;;;;;;;;;;3.50;84.80;;;;;;4287837;33;20352;-74
2021/04/06 07:39:19;;;;;;;;;;;3.50;84.80;;;;;;4275634;33;20028;-73
2021/04/06 07:41:46;;;;;;;;;;;3.50;84.50;;;;;;4287591;33;20459;-74
2021/04/06 07:44:14;;;;;;;;;;;3.50;84.50;;;;;;4286349;33;30008;-74
2021/04/06 07:46:41;;;;;;;;;;;3.50;84.60;;;;;;4287221;33;20344;-74
2021/04/06 07:49:31;;;;;;;;;;;3.60;84.50;;;;;;4286728;33;20085;-74
2021/04/06 07:51:58;;;;;;;;;;;3.50;84.40;;;;;;4274515;33;42737;-73
2021/04/06 07:54:41;;;;;;;;;;;3.50;84.50;;;;;;4273806;33;42175;-73
2021/04/06 07:57:09;;;;;;;;;;;3.50;84.60;;;;;;4274131;33;41570;-73
2021/04/06 07:59:35;;;;;;;;;;;3.50;84.50;;;;;;4273727;33;42073;-74
2021/04/06 08:02:05;;;;;;;;;;;3.50;84.80;;;;;;4286527;33;20014;-74
2021/04/06 08:04:37;;;;;;;;;;;3.50;84.60;;;;;;4287226;33;20011;-74
2021/04/06 08:07:19;;;;;;;;;;;3.50;84.50;;;;;;4275071;33;20045;-74
2021/04/06 08:09:55;;;;;;;;;;;3.50;84.40;;;;;;4273629;33;46355;-74
2021/04/06 08:12:26;;;;;;;;;;;3.50;84.30;;;;;;4287961;33;26550;-73
2021/04/06 08:15:00;;;;;;;;;;;3.50;84.40;;;;;;4287190;33;37958;-73
2021/04/06 08:17:37;;;;;;;;;;;3.50;84.50;;;;;;4287040;33;20033;-73
2021/04/06 08:20:25;;;;;;;;;;;3.50;84.40;;;;;;4286877;33;20026;-73
2021/04/06 08:22:55;;;;;;;;;;;3.50;84.30;;;;;;4274812;33;20007;-73
2021/04/06 08:25:33;;;;;;;;;;;3.50;84.40;;;;;;4286998;33;20042;-73
2021/04/06 08:28:24;;;;;;;;;;;3.50;84.60;;;;;;4287018;33;20007;-73
2021/04/06 08:31:16;;;;;;;;;;;3.50;84.60;;;;;;4286680;33;20005;-73
2021/04/06 08:33:43;;;;;;;;;;;3.50;84.60;;;;;;4275009;33;20015;-73
2021/04/06 08:36:10;;;;;;;;;;;3.40;84.60;;;;;;4277196;33;25794;-73
2021/04/06 08:38:36;;;;;;;;;;;3.40;84.70;;;;;;4276343;33;38487;-74
2021/04/06 08:41:13;;;;;;;;;;;3.40;84.80;;;;;;4277167;33;20036;-74
2021/04/06 08:44:06;;;;;;;;;;;3.40;84.90;;;;;;4277613;33;20045;-74
2021/04/06 08:46:35;;;;;;;;;;;3.40;85.00;;;;;;4286754;33;33528;-74
2021/04/06 08:49:12;;;;;;;;;;;3.40;85.10;;;;;;4277456;33;20025;-74
2021/04/06 08:51:45;;;;;;;;;;;3.40;85.00;;;;;;4277680;33;20317;-73
2021/04/06 08:54:19;;;;;;;;;;;3.50;84.90;;;;;;4277913;33;20014;-74
2021/04/06 08:56:56;;;;;;;;;;;3.40;84.90;;;;;;4288557;33;32800;-74
2021/04/06 08:59:33;;;;;;;;;;;3.40;85.00;;;;;;4276258;33;41301;-74
2021/04/06 09:02:12;;;;;;;;;;;3.40;85.10;;;;;;4276926;33;20356;-74
2021/04/06 09:04:45;;;;;;;;;;;3.50;85.00;;;;;;4277060;33;20007;-74
2021/04/06 09:07:26;;;;;;;;;;;3.50;85.00;;;;;;4289276;33;20033;-74
2021/04/06 09:09:54;;;;;;;;;;;3.50;85.10;;;;;;4277382;33;20003;-74
2021/04/06 09:12:39;;;;;;;;;;;3.40;85.30;;;;;;4275874;33;35965;-74
2021/04/06 09:15:09;;;;;;;;;;;3.50;85.20;;;;;;4276861;33;20003;-73
2021/04/06 09:17:48;;;;;;;;;;;3.50;85.10;;;;;;4277121;33;20412;-74
2021/04/06 09:20:21;;;;;;;;;;;3.40;85.30;;;;;;4276558;33;20010;-74
2021/04/06 09:22:51;;;;;;;;;;;3.40;85.20;;;;;;4288317;33;27019;-74
2021/04/06 09:25:26;;;;;;;;;;;3.40;85.40;;;;;;4277146;33;20013;-74
2021/04/06 09:28:03;;;;;;;;;;;3.50;85.60;;;;;;4290575;33;20392;-74
2021/04/06 09:30:35;;;;;;;;;;;3.50;85.60;;;;;;4288623;33;20002;-74
2021/04/06 09:33:08;;;;;;;;;;;3.50;85.70;;;;;;4277055;33;19999;-74
2021/04/06 09:36:00;;;;;;;;;;;3.50;85.70;;;;;;4289887;33;20007;-74
2021/04/06 09:38:27;;;;;;;;;;;3.50;85.80;;;;;;4287930;33;44644;-74
2021/04/06 09:40:57;;;;;;;;;;;3.50;85.80;;;;;;4276358;33;20014;-74
2021/04/06 09:43:26;;;;;;;;;;;3.50;85.90;;;;;;4310315;33;20376;-74
2021/04/06 09:46:01;;;;;;;;;;;3.50;85.90;;;;;;4305109;33;20027;-73
2021/04/06 09:48:31;;;;;;;;;;;3.50;85.90;;;;;;4292386;33;44236;-73
2021/04/06 09:51:03;;;;;;;;;;;3.60;85.90;;;;;;4304964;33;20064;-73
2021/04/06 09:53:44;;;;;;;;;;;3.50;85.90;;;;;;4318884;33;20018;-73
2021/04/06 09:56:12;;;;;;;;;;;3.60;86.00;;;;;;4303765;33;41760;-73
2021/04/06 09:58:44;;;;;;;;;;;3.60;85.90;;;;;;4291918;33;39706;-72
2021/04/06 10:01:25;;;;;;;;;;;3.60;85.90;;;;;;4318449;33;20024;-73
2021/04/06 10:03:58;;;;;;;;;;;3.60;85.90;;;;;;4305208;33;20445;-73
2021/04/06 10:06:44;;;;;;;;;;;3.60;86.00;;;;;;4293493;33;20465;-72
2021/04/06 10:09:22;;;;;;;;;;;3.50;86.00;;;;;;4317384;33;42471;-73
2021/04/06 10:11:54;;;;;;;;;;;3.50;85.80;;;;;;4293189;33;20012;-73
2021/04/06 10:14:25;;;;;;;;;;;3.50;85.80;;;;;;4305222;33;20014;-73
2021/04/06 10:17:11;;;;;;;;;;;3.50;85.90;;;;;;4304997;33;20037;-73
2021/04/06 10:19:44;;;;;;;;;;;3.40;85.90;;;;;;4304115;33;41722;-73
2021/04/06 10:22:19;;;;;;;;;;;3.40;86.10;;;;;;4317545;33;27480;-73
2021/04/06 10:24:56;;;;;;;;;;;3.40;86.20;;;;;;4317163;33;31924;-72
2021/04/06 10:27:23;;;;;;;;;;;3.40;86.40;;;;;;4291938;33;20058;-72
2021/04/06 10:30:06;;;;;;;;;;;3.40;86.50;;;;;;4318237;33;20005;-72
2021/04/06 10:32:46;;;;;;;;;;;3.40;86.40;;;;;;4292500;33;20017;-71
2021/04/06 10:35:33;;;;;;;;;;;3.50;86.50;;;;;;4292098;33;40819;-71
2021/04/06 10:38:01;;;;;;;;;;;3.50;86.50;;;;;;4303924;33;44826;-71
2021/04/06 10:40:29;;;;;;;;;;;3.50;86.30;;;;;;4303678;33;44496;-71
2021/04/06 10:43:01;;;;;;;;;;;3.60;86.20;;;;;;4303161;33;45068;-71
2021/04/06 10:45:29;;;;;;;;;;;3.50;86.10;;;;;;4303214;33;43316;-71
2021/04/06 10:48:08;;;;;;;;;;;3.60;86.30;;;;;;4303603;33;38549;-72
2021/04/06 10:50:43;;;;;;;;;;;3.50;86.10;;;;;;4304236;33;44679;-72
2021/04/06 10:53:14;;;;;;;;;;;3.60;86.20;;;;;;4292303;33;20114;-71
2021/04/06 10:55:51;;;;;;;;;;;3.60;86.30;;;;;;4304050;33;20010;-71
2021/04/06 10:58:26;;;;;;;;;;;3.60;86.40;;;;;;4304644;33;20081;-71
2021/04/06 11:00:59;;;;;;;;;;;3.70;86.30;;;;;;4317483;33;20002;-71
2021/04/06 11:03:34;;;;;;;;;;;3.70;86.40;;;;;;4315763;33;20037;-73
2021/04/06 11:06:12;;;;;;;;;;;3.70;86.40;;;;;;4303453;33;20061;-75
2021/04/06 11:08:50;;;;;;;;;;;3.80;86.30;;;;;;4291554;33;20005;-73
2021/04/06 11:11:32;;;;;;;;;;;3.80;86.10;;;;;;4304653;33;20017;-73
2021/04/06 11:14:10;;;;;;;;;;;3.90;86.10;;;;;;4304551;33;20017;-73
2021/04/06 11:16:49;;;;;;;;;;;3.90;85.90;;;;;;4304621;33;20407;-72
2021/04/06 11:19:30;;;;;;;;;;;4.00;85.90;;;;;;4292209;33;20061;-71
2021/04/06 11:22:14;;;;;;;;;;;4.00;85.80;;;;;;4304359;33;20018;-72
2021/04/06 11:24:51;;;;;;;;;;;4.00;85.80;;;;;;4304361;33;20066;-72
2021/04/06 11:27:30;;;;;;;;;;;4.00;85.70;;;;;;4317788;33;20073;-72
2021/04/06 11:30:07;;;;;;;;;;;3.90;85.50;;;;;;4304331;33;20010;-72
2021/04/06 11:32:42;;;;;;;;;;;3.90;85.50;;;;;;4317663;33;20044;-73
2021/04/06 11:35:25;;;;;;;;;;;3.90;85.70;;;;;;4304017;33;20399;-73
2021/04/06 11:38:03;;;;;;;;;;;3.80;85.80;;;;;;4317217;33;20028;-73
2021/04/06 11:40:38;;;;;;;;;;;3.70;85.90;;;;;;4291992;33;20002;-73
2021/04/06 11:43:22;;;;;;;;;;;3.70;86.10;;;;;;4303650;33;20012;-73
2021/04/06 11:46:00;;;;;;;;;;;3.60;86.20;;;;;;4317507;33;20041;-73
2021/04/06 11:48:41;;;;;;;;;;;3.60;86.20;;;;;;4303509;33;20010;-73
2021/04/06 11:51:16;;;;;;;;;;;3.60;86.20;;;;;;4304011;33;20069;-73
2021/04/06 11:53:51;;;;;;;;;;;3.60;86.20;;;;;;4317327;33;20057;-73
2021/04/06 11:56:24;;;;;;;;;;;3.60;86.30;;;;;;4317271;33;20099;-73
2021/04/06 11:59:02;;;;;;;;;;;3.70;86.50;;;;;;4304121;33;20043;-73
2021/04/06 12:01:39;;;;;;;;;;;3.60;86.50;;;;;;4292340;33;20021;-73
2021/04/06 12:04:17;;;;;;;;;;;3.70;86.60;;;;;;4304331;33;20028;-74
2021/04/06 12:06:51;;;;;;;;;;;3.70;86.50;;;;;;4304069;33;20018;-74
2021/04/06 12:09:28;;;;;;;;;;;3.80;86.40;;;;;;4306096;33;20068;-74
2021/04/06 12:12:06;;;;;;;;;;;3.80;86.40;;;;;;4307531;33;20054;-74
2021/04/06 12:14:40;;;;;;;;;;;3.80;86.30;;;;;;4307060;33;20014;-74
2021/04/06 12:17:21;;;;;;;;;;;3.90;86.30;;;;;;4320086;33;20114;-74
2021/04/06 12:19:56;;;;;;;;;;;4.00;86.20;;;;;;4306848;33;20061;-74
2021/04/06 12:22:34;;;;;;;;;;;4.00;86.30;;;;;;4307548;33;20012;-74
2021/04/06 12:25:12;;;;;;;;;;;4.10;86.10;;;;;;4306785;33;20347;-74
2021/04/06 12:27:50;;;;;;;;;;;4.20;86.00;;;;;;4294634;33;20002;-74
2021/04/06 12:30:26;;;;;;;;;;;4.20;85.80;;;;;;4306887;33;20400;-74
2021/04/06 12:33:02;;;;;;;;;;;4.20;85.60;;;;;;4306261;33;20014;-74
2021/04/06 12:35:42;;;;;;;;;;;4.30;85.50;;;;;;4306509;33;20010;-74
2021/04/06 12:38:14;;;;;;;;;;;4.20;85.50;;;;;;4319894;33;20065;-74
2021/04/06 12:40:53;;;;;;;;;;;4.30;85.30;;;;;;4306706;33;20019;-74
2021/04/06 12:43:28;;;;;;;;;;;4.30;85.20;;;;;;4306536;33;20054;-74
2021/04/06 12:46:09;;;;;;;;;;;4.30;85.10;;;;;;4319577;33;20058;-74
2021/04/06 12:48:50;;;;;;;;;;;4.30;85.10;;;;;;4319597;33;20441;-74
2021/04/06 12:51:27;;;;;;;;;;;4.30;85.10;;;;;;4306993;33;20065;-74
2021/04/06 12:54:11;;;;;;;;;;;4.40;85.10;;;;;;4306320;33;20014;-74
2021/04/06 12:56:46;;;;;;;;;;;4.40;85.00;;;;;;4306309;33;20012;-75
2021/04/06 12:59:24;;;;;;;;;;;4.50;85.10;;;;;;4319369;33;20023;-74
2021/04/06 13:01:54;;;;;;;;;;;4.50;85.10;;;;;;4305902;33;20013;-75
2021/04/06 13:04:32;;;;;;;;;;;4.60;85.00;;;;;;4306152;33;20037;-75
2021/04/06 13:07:04;;;;;;;;;;;4.60;85.00;;;;;;4292725;33;32063;-76
2021/04/06 13:09:49;;;;;;;;;;;4.60;84.80;;;;;;4319369;33;20077;-75
2021/04/06 13:12:27;;;;;;;;;;;4.70;84.70;;;;;;4305063;33;32718;-75
2021/04/06 13:15:04;;;;;;;;;;;4.70;84.70;;;;;;4306111;33;20061;-75
2021/04/06 13:17:39;;;;;;;;;;;4.70;84.80;;;;;;4318433;33;35453;-75
2021/04/06 13:20:18;;;;;;;;;;;4.80;84.70;;;;;;4317833;33;29588;-74
2021/04/06 13:22:55;;;;;;;;;;;4.80;84.70;;;;;;4305839;33;20025;-75
2021/04/06 13:25:33;;;;;;;;;;;4.90;84.60;;;;;;4304834;33;27254;-74
2021/04/06 13:28:11;;;;;;;;;;;4.90;85.10;;;;;;4305316;33;35840;-74
2021/04/06 13:30:43;;;;;;;;;;;4.90;84.40;;;;;;4304756;33;32144;-75
2021/04/06 13:33:22;;;;;;;;;;;4.90;84.40;;;;;;4319189;33;20065;-74
2021/04/06 13:36:00;;;;;;;;;;;4.90;84.40;;;;;;4304646;33;43674;-75
2021/04/06 13:38:38;;;;;;;;;;;5.00;84.30;;;;;;4305181;33;35452;-75
2021/04/06 13:41:16;;;;;;;;;;;5.00;84.20;;;;;;4292906;33;31606;-75
2021/04/06 13:43:51;;;;;;;;;;;5.10;84.10;;;;;;4304841;33;36552;-75
2021/04/06 13:46:34;;;;;;;;;;;5.10;84.10;;;;;;4304879;33;30085;-76
2021/04/06 13:49:12;;;;;;;;;;;5.00;84.10;;;;;;4304893;33;32992;-75
2021/04/06 13:51:53;;;;;;;;;;;4.90;84.30;;;;;;4317895;33;37466;-75
2021/04/06 13:54:31;;;;;;;;;;;4.80;84.60;;;;;;4303906;33;41433;-75
2021/04/06 13:57:11;;;;;;;;;;;4.70;84.90;;;;;;4305145;33;37729;-75
2021/04/06 13:59:52;;;;;;;;;;;4.70;85.00;;;;;;4317688;33;38680;-75
2021/04/06 14:02:20;;;;;;;;;;;4.60;84.90;;;;;;4304111;33;35126;-75
2021/04/06 14:04:47;;;;;;;;;;;4.60;85.00;;;;;;4304368;33;44266;-74
2021/04/06 14:07:13;;;;;;;;;;;4.60;85.10;;;;;;4303704;33;43599;-75
2021/04/06 14:09:43;;;;;;;;;;;4.60;85.40;;;;;;4317053;33;40203;-75
2021/04/06 14:12:20;;;;;;;;;;;4.60;85.40;;;;;;4304984;33;20415;-75
2021/04/06 14:14:52;;;;;;;;;;;4.60;85.50;;;;;;4303884;33;39628;-75
2021/04/06 14:17:31;;;;;;;;;;;4.70;85.60;;;;;;4304391;33;32010;-75
2021/04/06 14:20:03;;;;;;;;;;;4.70;86.30;;;;;;4304063;33;43164;-75
2021/04/06 14:22:41;;;;;;;;;;;4.80;85.30;;;;;;4317719;33;32910;-76
2021/04/06 14:25:14;;;;;;;;;;;4.80;86.00;;;;;;4304263;33;33929;-76
2021/04/06 14:27:51;;;;;;;;;;;4.80;85.20;;;;;;4318217;33;20012;-77
2021/04/06 14:30:24;;;;;;;;;;;4.80;85.10;;;;;;4304971;33;20024;-76
2021/04/06 14:32:59;;;;;;;;;;;4.90;85.00;;;;;;4304092;33;20054;-76
2021/04/06 14:35:36;;;;;;;;;;;4.90;84.90;;;;;;4292729;33;20002;-77
2021/04/06 14:38:06;;;;;;;;;;;4.90;84.80;;;;;;4303446;33;44078;-77
2021/04/06 14:40:42;;;;;;;;;;;4.90;84.80;;;;;;4317913;33;20018;-77
2021/04/06 14:43:28;;;;;;;;;;;4.90;84.60;;;;;;4292648;33;20103;-77
2021/04/06 14:46:01;;;;;;;;;;;4.90;84.50;;;;;;4317004;33;44387;-77
2021/04/06 14:48:41;;;;;;;;;;;5.00;84.30;;;;;;4292418;33;26772;-77
2021/04/06 14:51:14;;;;;;;;;;;4.90;84.40;;;;;;4303353;33;42268;-77
2021/04/06 14:53:47;;;;;;;;;;;4.90;84.40;;;;;;4317793;33;20018;-77
2021/04/06 14:56:22;;;;;;;;;;;4.80;84.70;;;;;;4304533;33;19990;-77
2021/04/06 14:58:54;;;;;;;;;;;4.90;84.70;;;;;;4304955;33;20069;-77
2021/04/06 15:01:24;;;;;;;;;;;4.90;84.60;;;;;;4303076;33;20014;-77
2021/04/06 15:03:53;;;;;;;;;;;5.00;84.50;;;;;;4303980;33;20025;-77
2021/04/06 15:06:23;;;;;;;;;;;5.00;84.30;;;;;;4303436;33;21479;-77
2021/04/06 15:08:50;;;;;;;;;;;5.00;84.10;;;;;;4304526;33;20013;-77
2021/04/06 15:11:17;;;;;;;;;;;5.00;84.00;;;;;;4303914;33;20010;-77
2021/04/06 15:13:47;;;;;;;;;;;5.10;83.90;;;;;;4303343;33;44887;-77
2021/04/06 15:16:20;;;;;;;;;;;5.00;83.80;;;;;;4317358;33;20010;-77
2021/04/06 15:18:50;;;;;;;;;;;5.00;83.90;;;;;;4291166;33;43663;-77
2021/04/06 15:21:17;;;;;;;;;;;5.00;84.10;;;;;;4302816;33;38342;-76
2021/04/06 15:23:44;;;;;;;;;;;4.90;84.20;;;;;;4302789;33;43023;-76